createdAt,value
2017-12-12T00:02:00.378Z,33.90
2017-12-12T00:04:03.823Z,36.17
2017-12-12T00:06:06.579Z,34.30
2017-12-12T00:08:09.235Z,33.07
2017-12-12T00:10:11.909Z,29.00
2017-12-12T00:12:14.566Z,29.00
2017-12-12T00:14:17.981Z,33.40
2017-12-12T00:16:20.673Z,27.00
2017-12-12T00:18:23.323Z,31.57
2017-12-12T00:20:26.738Z,28.20
2017-12-12T00:22:41.304Z,33.30
2017-12-12T00:24:43.940Z,27.57
2017-12-12T00:26:47.363Z,29.70
2017-12-12T00:28:50.029Z,27.73
2017-12-12T00:30:52.680Z,28.53
2017-12-12T00:32:56.110Z,26.33
2017-12-12T00:34:58.770Z,23.63
2017-12-12T00:37:01.431Z,29.67
2017-12-12T00:39:04.876Z,28.17
2017-12-12T00:41:07.542Z,27.77
2017-12-12T00:43:10.189Z,25.10
2017-12-12T00:45:12.849Z,26.80
2017-12-12T00:47:16.309Z,25.40
2017-12-12T00:49:18.956Z,24.97
2017-12-12T00:51:21.635Z,22.97
2017-12-12T00:53:24.327Z,23.90
2017-12-12T00:55:26.972Z,21.17
2017-12-12T00:57:29.622Z,19.67
2017-12-12T00:59:33.054Z,19.93
2017-12-12T01:01:35.716Z,19.53
2017-12-12T01:03:38.378Z,20.97
2017-12-12T01:05:41.854Z,19.80
2017-12-12T01:07:44.565Z,17.10
2017-12-12T01:09:47.214Z,18.03
2017-12-12T01:11:50.657Z,18.40
2017-12-12T01:13:53.310Z,16.40
2017-12-12T01:15:56.009Z,16.10
2017-12-12T01:17:58.690Z,15.10
2017-12-12T01:20:01.333Z,16.57
2017-12-12T01:22:03.988Z,15.17
2017-12-12T01:24:07.834Z,16.73
2017-12-12T01:26:10.474Z,13.60
2017-12-12T01:28:13.919Z,14.90
2017-12-12T01:30:16.571Z,15.03
2017-12-12T01:32:19.230Z,14.00
2017-12-12T01:34:22.688Z,17.17
2017-12-12T01:36:25.347Z,13.30
2017-12-12T01:38:28.053Z,12.33
2017-12-12T01:40:30.758Z,12.50
2017-12-12T01:42:33.441Z,12.77
2017-12-12T01:44:36.160Z,14.90
2017-12-12T01:46:38.831Z,12.97
2017-12-12T01:48:41.578Z,12.00
2017-12-12T01:50:44.261Z,11.97
2017-12-12T01:52:46.977Z,13.10
2017-12-12T01:54:49.701Z,13.43
2017-12-12T01:56:52.508Z,11.70
2017-12-12T01:58:55.239Z,11.53
2017-12-12T02:00:58.723Z,11.60
2017-12-12T02:03:02.211Z,10.97
2017-12-12T02:05:04.952Z,12.70
2017-12-12T02:07:07.630Z,10.53
2017-12-12T02:09:10.312Z,9.90
2017-12-12T02:11:12.995Z,9.73
2017-12-12T02:13:15.683Z,13.67
2017-12-12T02:15:18.351Z,8.87
2017-12-12T02:17:21.055Z,11.20
2017-12-12T02:19:24.534Z,11.63
2017-12-12T02:21:27.274Z,10.63
2017-12-12T02:23:29.994Z,11.60
2017-12-12T02:25:32.657Z,12.40
2017-12-12T02:27:35.377Z,9.30
2017-12-12T02:29:38.048Z,9.80
2017-12-12T02:31:41.606Z,9.60
2017-12-12T02:33:44.298Z,10.70
2017-12-12T02:35:48.060Z,12.23
2017-12-12T02:37:50.784Z,20.37
2017-12-12T02:39:54.225Z,11.43
2017-12-12T02:41:56.908Z,14.27
2017-12-12T02:43:59.626Z,10.73
2017-12-12T02:46:02.314Z,12.90
2017-12-12T02:48:05.840Z,10.27
2017-12-12T02:50:08.552Z,15.10
2017-12-12T02:52:11.229Z,17.17
2017-12-12T02:54:13.949Z,14.30
2017-12-12T02:56:19.541Z,12.43
2017-12-12T02:58:22.231Z,12.60
2017-12-12T03:00:24.946Z,12.97
2017-12-12T03:02:28.404Z,16.37
2017-12-12T03:04:31.118Z,16.90
2017-12-12T03:06:34.598Z,15.60
2017-12-12T03:08:37.305Z,15.33
2017-12-12T03:10:40.017Z,14.40
2017-12-12T03:12:42.712Z,15.27
2017-12-12T03:14:45.583Z,19.10
2017-12-12T03:16:48.261Z,16.70
2017-12-12T03:18:50.973Z,20.43
2017-12-12T03:20:54.485Z,16.50
2017-12-12T03:22:57.152Z,14.83
2017-12-12T03:25:00.615Z,21.83
2017-12-12T03:27:03.305Z,17.80
2017-12-12T03:29:05.989Z,17.43
2017-12-12T03:31:09.472Z,12.10
2017-12-12T03:33:12.130Z,20.27
2017-12-12T03:35:14.788Z,15.77
2017-12-12T03:37:17.505Z,17.53
2017-12-12T03:39:20.988Z,13.80
2017-12-12T03:41:23.677Z,16.77
2017-12-12T03:43:27.168Z,19.50
2017-12-12T03:45:29.845Z,17.17
2017-12-12T03:47:32.545Z,13.07
2017-12-12T03:49:35.275Z,15.50
2017-12-12T03:51:37.967Z,15.67
2017-12-12T03:53:40.650Z,16.20
2017-12-12T03:55:43.349Z,17.73
2017-12-12T03:57:46.789Z,14.07
2017-12-12T03:59:49.506Z,12.27
2017-12-12T04:01:52.979Z,18.60
2017-12-12T04:03:55.692Z,17.80
2017-12-12T04:05:59.288Z,19.47
2017-12-12T04:08:05.368Z,16.87
2017-12-12T04:10:09.138Z,14.30
2017-12-12T04:12:13.547Z,23.47
2017-12-12T04:14:16.418Z,14.60
2017-12-12T04:16:19.192Z,18.73
2017-12-12T04:18:21.998Z,15.23
2017-12-12T04:20:25.445Z,18.00
2017-12-12T04:22:28.167Z,20.03
2017-12-12T04:24:31.085Z,21.50
2017-12-12T04:26:33.757Z,17.80
2017-12-12T04:28:36.480Z,12.20
2017-12-12T04:30:39.250Z,15.00
2017-12-12T04:32:41.995Z,16.27
2017-12-12T04:34:44.660Z,13.30
2017-12-12T04:36:47.349Z,14.77
2017-12-12T04:38:50.039Z,16.67
2017-12-12T04:40:52.760Z,16.70
2017-12-12T04:42:56.972Z,17.83
2017-12-12T04:44:59.675Z,22.40
2017-12-12T04:47:02.396Z,20.40
2017-12-12T04:49:05.099Z,14.53
2017-12-12T04:51:07.876Z,16.30
2017-12-12T04:53:10.589Z,16.60
2017-12-12T04:55:13.291Z,12.33
2017-12-12T04:57:15.997Z,15.37
2017-12-12T04:59:18.706Z,20.20
2017-12-12T05:01:22.158Z,18.77
2017-12-12T05:03:24.832Z,11.73
2017-12-12T05:05:27.582Z,23.17
2017-12-12T05:07:30.376Z,21.80
2017-12-12T05:09:33.060Z,24.47
2017-12-12T05:11:35.918Z,19.47
2017-12-12T05:13:38.601Z,17.93
2017-12-12T05:15:41.289Z,18.23
2017-12-12T05:17:44.012Z,17.90
2017-12-12T05:19:47.469Z,20.00
2017-12-12T05:21:50.167Z,19.20
2017-12-12T05:23:52.898Z,18.17
2017-12-12T05:25:55.671Z,16.53
2017-12-12T05:27:58.381Z,16.93
2017-12-12T05:30:01.075Z,19.70
2017-12-12T05:32:03.790Z,30.03
2017-12-12T05:34:06.500Z,17.70
2017-12-12T05:36:09.206Z,18.07
2017-12-12T05:38:11.907Z,15.93
2017-12-12T05:40:15.354Z,21.83
2017-12-12T05:42:18.047Z,18.80
2017-12-12T05:44:20.749Z,15.10
2017-12-12T05:46:23.506Z,14.37
2017-12-12T05:48:26.193Z,20.57
2017-12-12T05:50:28.927Z,14.40
2017-12-12T05:52:31.603Z,17.00
2017-12-12T05:54:34.306Z,23.53
2017-12-12T05:56:37.023Z,23.07
2017-12-12T05:58:39.799Z,23.13
2017-12-12T06:00:43.256Z,19.37
2017-12-12T06:02:45.954Z,23.30
2017-12-12T06:04:48.669Z,24.87
2017-12-12T06:06:51.329Z,19.37
2017-12-12T06:08:54.838Z,23.87
2017-12-12T06:10:57.516Z,25.50
2017-12-12T06:13:00.224Z,21.47
2017-12-12T06:15:03.101Z,21.87
2017-12-12T06:17:05.806Z,30.37
2017-12-12T06:19:08.524Z,26.50
2017-12-12T06:21:11.256Z,27.00
2017-12-12T06:23:13.939Z,27.73
2017-12-12T06:25:16.674Z,26.40
2017-12-12T06:27:19.359Z,25.30
2017-12-12T06:29:22.075Z,25.17
2017-12-12T06:31:24.800Z,32.33
2017-12-12T06:33:27.487Z,28.80
2017-12-12T06:35:30.628Z,31.33
2017-12-12T06:37:34.104Z,33.60
2017-12-12T06:39:36.793Z,34.80
2017-12-12T06:41:40.273Z,31.23
2017-12-12T06:43:42.973Z,33.53
2017-12-12T06:45:46.426Z,30.50
2017-12-12T06:47:49.150Z,32.03
2017-12-12T06:49:52.601Z,29.90
2017-12-12T06:51:55.314Z,33.43
2017-12-12T06:53:58.776Z,35.83
2017-12-12T06:56:01.486Z,40.83
2017-12-12T06:58:04.992Z,28.47
2017-12-12T07:00:07.692Z,27.07
2017-12-12T07:02:10.371Z,30.43
2017-12-12T07:04:13.074Z,29.70
2017-12-12T07:06:15.742Z,37.03
2017-12-12T07:08:18.461Z,50.00
2017-12-12T07:10:21.955Z,34.00
2017-12-12T07:12:25.434Z,36.63
2017-12-12T07:14:28.205Z,40.77
2017-12-12T07:16:30.917Z,46.50
2017-12-12T07:18:34.357Z,50.10
2017-12-12T07:20:37.030Z,38.13
2017-12-12T07:22:39.745Z,32.10
2017-12-12T07:24:43.192Z,35.03
2017-12-12T07:26:45.867Z,40.23
2017-12-12T07:28:48.562Z,37.03
2017-12-12T07:30:51.202Z,55.40
2017-12-12T07:32:53.872Z,52.87
2017-12-12T07:34:56.692Z,33.97
2017-12-12T07:36:59.361Z,39.77
2017-12-12T07:39:02.968Z,36.07
2017-12-12T07:41:05.812Z,61.90
2017-12-12T07:43:08.477Z,42.47
2017-12-12T07:45:11.419Z,41.10
2017-12-12T07:47:14.219Z,42.87
2017-12-12T07:49:17.645Z,33.17
2017-12-12T07:51:20.331Z,33.07
2017-12-12T07:53:23.044Z,34.87
2017-12-12T07:55:25.709Z,36.70
2017-12-12T07:57:28.445Z,39.73
2017-12-12T07:59:31.149Z,37.20
2017-12-12T08:01:33.867Z,42.90
2017-12-12T08:03:36.713Z,40.03
2017-12-12T08:05:39.478Z,46.03
2017-12-12T08:07:42.236Z,37.03
2017-12-12T08:09:44.990Z,42.97
2017-12-12T08:11:48.446Z,43.17
2017-12-12T08:13:51.105Z,42.57
2017-12-12T08:15:53.750Z,45.67
2017-12-12T08:17:56.440Z,35.67
2017-12-12T08:19:59.115Z,35.10
2017-12-12T08:22:01.919Z,42.70
2017-12-12T08:24:04.623Z,36.67
2017-12-12T08:26:07.300Z,49.13
2017-12-12T08:28:09.980Z,38.73
2017-12-12T08:30:12.730Z,37.23
2017-12-12T08:32:15.397Z,39.20
2017-12-12T08:34:18.115Z,39.00
2017-12-12T08:36:20.792Z,32.20
2017-12-12T08:38:23.460Z,31.93
2017-12-12T08:40:26.329Z,37.60
2017-12-12T08:42:29.009Z,35.13
2017-12-12T08:44:31.691Z,37.20
2017-12-12T08:46:34.390Z,39.97
2017-12-12T08:48:37.822Z,32.53
2017-12-12T08:50:40.488Z,33.57
2017-12-12T08:52:43.202Z,33.53
2017-12-12T08:54:45.914Z,31.73
2017-12-12T08:56:49.381Z,43.23
2017-12-12T08:58:52.077Z,41.33
2017-12-12T09:00:55.522Z,28.07
2017-12-12T09:02:58.191Z,29.90
2017-12-12T09:05:00.887Z,31.73
2017-12-12T09:07:03.599Z,24.87
2017-12-12T09:09:06.307Z,25.60
2017-12-12T09:11:08.993Z,28.47
2017-12-12T09:13:11.659Z,37.13
2017-12-12T09:15:14.424Z,37.07
2017-12-12T09:17:17.837Z,38.17
2017-12-12T09:19:20.493Z,39.00
2017-12-12T09:21:24.011Z,43.80
2017-12-12T09:23:26.694Z,48.70
2017-12-12T09:25:29.352Z,61.27
2017-12-12T09:27:32.031Z,51.47
2017-12-12T09:29:34.695Z,70.00
2017-12-12T09:31:37.451Z,50.70
2017-12-12T09:33:40.181Z,59.20
2017-12-12T09:35:42.979Z,54.97
2017-12-12T09:37:45.759Z,51.53
2017-12-12T09:39:48.456Z,53.30
2017-12-12T09:41:51.134Z,52.60
2017-12-12T09:43:53.787Z,45.77
2017-12-12T09:45:56.494Z,42.77
2017-12-12T09:47:59.168Z,43.17
2017-12-12T09:50:01.842Z,36.37
2017-12-12T09:52:04.534Z,38.07
2017-12-12T09:54:07.946Z,59.20
2017-12-12T09:56:10.652Z,52.93
2017-12-12T09:58:13.365Z,48.60
2017-12-12T10:00:16.123Z,53.23
2017-12-12T10:02:18.791Z,37.00
2017-12-12T10:04:21.492Z,35.17
2017-12-12T10:06:24.160Z,43.27
2017-12-12T10:08:26.853Z,46.63
2017-12-12T10:10:29.547Z,36.90
2017-12-12T10:12:32.975Z,36.17
2017-12-12T10:14:35.852Z,43.97
2017-12-12T10:16:38.511Z,40.80
2017-12-12T10:18:41.188Z,40.07
2017-12-12T10:20:45.042Z,40.33
2017-12-12T10:22:47.722Z,36.00
2017-12-12T10:24:50.374Z,34.33
2017-12-12T10:26:53.069Z,40.97
2017-12-12T10:28:55.720Z,61.00
2017-12-12T10:30:58.413Z,106.57
2017-12-12T10:33:01.103Z,45.60
2017-12-12T10:35:03.769Z,38.87
2017-12-12T10:37:06.485Z,37.17
2017-12-12T10:39:09.893Z,42.93
2017-12-12T10:41:12.730Z,34.63
2017-12-12T10:43:16.269Z,30.73
2017-12-12T10:45:18.963Z,32.43
2017-12-12T10:47:21.662Z,39.77
2017-12-12T10:49:24.376Z,37.63
2017-12-12T10:51:27.836Z,33.37
2017-12-12T10:53:30.496Z,48.03
2017-12-12T10:55:33.172Z,35.70
2017-12-12T10:57:35.866Z,36.83
2017-12-12T10:59:38.549Z,39.03
2017-12-12T11:01:41.235Z,34.83
2017-12-12T11:03:43.916Z,26.97
2017-12-12T11:05:46.606Z,32.30
2017-12-12T11:07:50.108Z,29.17
2017-12-12T11:09:53.532Z,34.50
2017-12-12T11:11:56.201Z,30.50
2017-12-12T11:13:58.903Z,30.60
2017-12-12T11:16:01.587Z,28.20
2017-12-12T11:18:04.302Z,28.30
2017-12-12T11:20:06.971Z,35.60
2017-12-12T11:22:10.402Z,30.03
2017-12-12T11:24:13.118Z,32.83
2017-12-12T11:26:15.812Z,27.07
2017-12-12T11:28:18.492Z,24.37
2017-12-12T11:30:21.156Z,24.10
2017-12-12T11:32:23.836Z,25.90
2017-12-12T11:34:26.503Z,25.60
2017-12-12T11:36:29.186Z,26.20
2017-12-12T11:38:31.833Z,27.10
2017-12-12T11:40:34.491Z,30.03
2017-12-12T11:42:37.171Z,30.80
2017-12-12T11:44:39.907Z,29.07
2017-12-12T11:46:43.338Z,29.10
2017-12-12T11:48:46.043Z,25.20
2017-12-12T11:50:49.501Z,28.63
2017-12-12T11:52:52.195Z,22.63
2017-12-12T11:54:54.916Z,29.10
2017-12-12T11:56:57.692Z,24.90
2017-12-12T11:59:00.400Z,21.13
2017-12-12T12:01:03.144Z,23.43
2017-12-12T12:03:05.883Z,21.87
2017-12-12T12:05:08.610Z,21.60
2017-12-12T12:07:11.364Z,18.17
2017-12-12T12:09:14.836Z,19.27
2017-12-12T12:11:17.601Z,23.67
2017-12-12T12:13:20.308Z,21.27
2017-12-12T12:15:23.003Z,22.40
2017-12-12T12:17:25.733Z,29.57
2017-12-12T12:19:28.418Z,38.67
2017-12-12T12:21:31.140Z,26.33
2017-12-12T12:23:33.828Z,31.93
2017-12-12T12:25:37.279Z,20.30
2017-12-12T12:27:39.983Z,16.53
2017-12-12T12:29:42.886Z,15.20
2017-12-12T12:31:47.533Z,12.70
2017-12-12T12:33:51.222Z,14.37
2017-12-12T12:35:53.953Z,14.83
2017-12-12T12:37:56.629Z,17.30
2017-12-12T12:39:59.313Z,24.60
2017-12-12T12:42:02.244Z,17.20
2017-12-12T12:44:04.966Z,15.17
2017-12-12T12:46:07.690Z,13.60
2017-12-12T12:48:10.420Z,14.83
2017-12-12T12:50:13.094Z,14.03
2017-12-12T12:52:15.787Z,12.50
2017-12-12T12:54:18.486Z,12.20
2017-12-12T12:56:21.160Z,13.83
2017-12-12T12:58:24.611Z,14.10
2017-12-12T13:00:27.298Z,14.83
2017-12-12T13:02:29.954Z,13.40
2017-12-12T13:04:32.607Z,13.97
2017-12-12T13:06:35.318Z,13.30
2017-12-12T13:08:37.992Z,12.70
2017-12-12T13:10:41.429Z,12.43
2017-12-12T13:12:44.883Z,24.87
2017-12-12T13:14:47.717Z,19.17
2017-12-12T13:16:50.369Z,11.73
2017-12-12T13:18:53.820Z,27.97
2017-12-12T13:20:56.474Z,18.53
2017-12-12T13:22:59.179Z,20.43
2017-12-12T13:25:01.855Z,14.70
2017-12-12T13:27:04.674Z,16.73
2017-12-12T13:29:08.101Z,18.00
2017-12-12T13:31:10.776Z,16.93
2017-12-12T13:33:13.466Z,16.83
2017-12-12T13:35:16.166Z,16.33
2017-12-12T13:37:18.986Z,18.93
2017-12-12T13:39:22.427Z,16.33
2017-12-12T13:41:25.130Z,26.57
2017-12-12T13:43:27.800Z,15.20
2017-12-12T13:45:30.491Z,17.03
2017-12-12T13:47:33.163Z,17.07
2017-12-12T13:49:36.623Z,17.10
2017-12-12T13:51:39.270Z,19.90
2017-12-12T13:53:41.948Z,21.03
2017-12-12T13:55:44.739Z,17.07
2017-12-12T13:57:47.394Z,18.00
2017-12-12T13:59:50.063Z,20.83
2017-12-12T14:01:53.511Z,19.73
2017-12-12T14:03:56.157Z,19.80
2017-12-12T14:05:58.811Z,17.70
2017-12-12T14:08:01.477Z,20.30
2017-12-12T14:10:04.889Z,19.77
2017-12-12T14:12:07.562Z,30.13
2017-12-12T14:14:10.239Z,24.70
2017-12-12T14:16:12.913Z,23.00
2017-12-12T14:18:15.714Z,22.97
2017-12-12T14:20:18.389Z,21.40
2017-12-12T14:22:21.061Z,30.53
2017-12-12T14:24:23.716Z,22.43
2017-12-12T14:26:26.403Z,25.90
2017-12-12T14:28:29.250Z,21.80
2017-12-12T14:30:31.893Z,29.03
2017-12-12T14:32:34.553Z,25.13
2017-12-12T14:34:37.249Z,24.37
2017-12-12T14:36:42.521Z,24.80
2017-12-12T14:38:45.936Z,24.03
2017-12-12T14:40:48.592Z,24.43
2017-12-12T14:42:52.155Z,49.20
2017-12-12T14:44:54.805Z,26.27
2017-12-12T14:46:57.465Z,24.80
2017-12-12T14:49:00.140Z,23.77
2017-12-12T14:51:02.787Z,26.60
2017-12-12T14:53:06.212Z,21.50
2017-12-12T14:55:08.900Z,21.37
2017-12-12T14:57:11.560Z,25.00
2017-12-12T14:59:14.219Z,23.17
2017-12-12T15:01:17.677Z,27.93
2017-12-12T15:03:20.338Z,20.00
2017-12-12T15:05:23.057Z,21.73
2017-12-12T15:07:26.506Z,22.77
2017-12-12T15:09:29.154Z,22.40
2017-12-12T15:11:31.823Z,24.93
2017-12-12T15:13:34.499Z,22.30
2017-12-12T15:15:37.169Z,23.67
2017-12-12T15:17:40.620Z,24.53
2017-12-12T15:19:43.308Z,29.07
2017-12-12T15:21:45.982Z,20.57
2017-12-12T15:23:49.433Z,21.17
2017-12-12T15:25:52.102Z,23.23
2017-12-12T15:27:54.763Z,23.00
2017-12-12T15:29:58.252Z,26.73
2017-12-12T15:32:01.720Z,23.37
2017-12-12T15:34:04.398Z,23.20
2017-12-12T15:36:07.087Z,26.20
2017-12-12T15:38:09.746Z,22.40
2017-12-12T15:40:12.435Z,22.70
2017-12-12T15:42:15.166Z,20.80
2017-12-12T15:44:17.843Z,20.90
2017-12-12T15:46:20.600Z,33.70
2017-12-12T15:48:24.043Z,25.40
2017-12-12T15:50:26.741Z,26.13
2017-12-12T15:52:30.831Z,26.20
2017-12-12T15:54:33.482Z,24.43
2017-12-12T15:56:36.135Z,25.70
2017-12-12T15:58:38.882Z,24.90
2017-12-12T16:00:41.668Z,27.87
2017-12-12T16:02:45.123Z,21.40
2017-12-12T16:04:47.783Z,22.93
2017-12-12T16:06:50.449Z,24.20
2017-12-12T16:08:53.131Z,23.63
2017-12-12T16:10:55.773Z,22.77
2017-12-12T16:12:59.196Z,21.70
2017-12-12T16:15:01.860Z,29.40
2017-12-12T16:17:04.583Z,26.40
2017-12-12T16:19:07.379Z,23.90
2017-12-12T16:21:10.017Z,23.60
2017-12-12T16:23:12.667Z,33.90
2017-12-12T16:25:15.338Z,36.03
2017-12-12T16:27:17.993Z,39.13
2017-12-12T16:29:21.439Z,34.30
2017-12-12T16:31:24.126Z,36.73
2017-12-12T16:33:26.795Z,39.47
2017-12-12T16:35:29.519Z,33.00
2017-12-12T16:37:33.037Z,40.23
2017-12-12T16:39:35.720Z,38.93
2017-12-12T16:41:38.401Z,34.03
2017-12-12T16:43:41.116Z,36.87
2017-12-12T16:45:43.839Z,39.50
2017-12-12T16:47:46.694Z,40.83
2017-12-12T16:49:50.166Z,40.33
2017-12-12T16:51:52.917Z,33.27
2017-12-12T16:53:55.608Z,44.33
2017-12-12T16:55:58.260Z,39.10
2017-12-12T16:58:01.313Z,40.93
2017-12-12T17:00:04.822Z,40.07
2017-12-12T17:02:07.502Z,42.10
2017-12-12T17:04:10.150Z,37.87
2017-12-12T17:06:12.995Z,46.73
2017-12-12T17:08:15.661Z,43.90
2017-12-12T17:10:18.582Z,40.80
2017-12-12T17:12:21.415Z,39.10
2017-12-12T17:14:24.067Z,44.50
2017-12-12T17:16:26.880Z,41.30
2017-12-12T17:18:29.561Z,43.27
2017-12-12T17:20:33.157Z,43.57
2017-12-12T17:22:37.013Z,47.10
2017-12-12T17:24:40.649Z,50.13
2017-12-12T17:26:43.326Z,117.80
2017-12-12T17:28:45.980Z,52.30
2017-12-12T17:30:48.647Z,42.67
2017-12-12T17:32:51.335Z,45.37
2017-12-12T17:34:53.985Z,48.77
2017-12-12T17:36:57.531Z,42.50
2017-12-12T17:39:00.201Z,48.73
2017-12-12T17:41:02.937Z,49.97
2017-12-12T17:43:06.352Z,48.00
2017-12-12T17:45:09.012Z,53.77
2017-12-12T17:47:11.812Z,47.33
2017-12-12T17:49:14.488Z,46.53
2017-12-12T17:51:17.208Z,53.03
2017-12-12T17:53:30.747Z,48.63
2017-12-12T17:55:33.516Z,45.07
2017-12-12T17:57:36.160Z,45.73
2017-12-12T17:59:38.921Z,50.57
2017-12-12T18:01:41.615Z,43.63
2017-12-12T18:03:44.311Z,56.43
2017-12-12T18:05:47.037Z,44.23
2017-12-12T18:07:49.708Z,41.07
2017-12-12T18:09:53.137Z,45.57
2017-12-12T18:11:55.806Z,41.60
2017-12-12T18:13:58.522Z,44.20
2017-12-12T18:16:01.192Z,47.10
2017-12-12T18:18:03.877Z,49.67
2017-12-12T18:20:06.546Z,49.80
2017-12-12T18:22:09.211Z,53.83
2017-12-12T18:24:11.938Z,60.10
2017-12-12T18:26:15.562Z,71.80
2017-12-12T18:28:18.214Z,70.70
2017-12-12T18:30:20.869Z,72.43
2017-12-12T18:32:24.322Z,106.30
2017-12-12T18:34:26.973Z,75.30
2017-12-12T18:36:29.868Z,64.60
2017-12-12T18:38:32.651Z,60.23
2017-12-12T18:40:35.419Z,62.40
2017-12-12T18:42:38.104Z,51.90
2017-12-12T18:44:40.771Z,56.07
2017-12-12T18:46:43.553Z,46.97
2017-12-12T18:48:46.433Z,44.60
2017-12-12T18:50:49.112Z,54.33
2017-12-12T18:52:52.206Z,52.60
2017-12-12T18:54:55.085Z,49.40
2017-12-12T18:56:57.764Z,51.47
2017-12-12T18:59:01.443Z,61.77
2017-12-12T19:01:04.241Z,50.20
2017-12-12T19:03:06.902Z,51.27
2017-12-12T19:05:09.687Z,65.53
2017-12-12T19:07:12.336Z,55.93
2017-12-12T19:09:15.873Z,65.40
2017-12-12T19:11:18.671Z,53.83
2017-12-12T19:13:21.559Z,55.20
2017-12-12T19:15:24.662Z,61.50
2017-12-12T19:17:28.144Z,57.63
2017-12-12T19:19:31.735Z,50.20
2017-12-12T19:21:34.457Z,46.27
2017-12-12T19:23:37.214Z,50.97
2017-12-12T19:25:40.826Z,54.50
2017-12-12T19:27:43.655Z,45.63
2017-12-12T19:29:46.535Z,43.37
2017-12-12T19:31:53.784Z,47.87
2017-12-12T19:33:56.587Z,47.97
2017-12-12T19:36:02.150Z,42.10
2017-12-12T19:38:05.144Z,44.57
2017-12-12T19:40:07.875Z,43.43
2017-12-12T19:42:10.586Z,45.67
2017-12-12T19:44:13.277Z,50.37
2017-12-12T19:46:16.138Z,47.07
2017-12-12T19:48:18.861Z,41.23
2017-12-12T19:50:22.381Z,43.63
2017-12-12T19:52:25.118Z,39.57
2017-12-12T19:54:27.978Z,39.60
2017-12-12T19:56:30.680Z,43.40
2017-12-12T19:58:33.395Z,45.27
2017-12-12T20:00:36.097Z,46.67
2017-12-12T20:02:38.859Z,41.63
2017-12-12T20:04:41.610Z,47.73
2017-12-12T20:06:44.387Z,43.13
2017-12-12T20:08:47.274Z,38.97
2017-12-12T20:10:50.012Z,40.97
2017-12-12T20:12:52.797Z,45.17
2017-12-12T20:14:55.523Z,41.90
2017-12-12T20:16:58.231Z,39.50
2017-12-12T20:19:00.907Z,45.40
2017-12-12T20:21:03.636Z,42.00
2017-12-12T20:23:06.300Z,37.67
2017-12-12T20:25:09.864Z,40.53
2017-12-12T20:27:13.197Z,42.03
2017-12-12T20:29:16.021Z,40.13
2017-12-12T20:31:18.715Z,40.70
2017-12-12T20:33:21.391Z,43.90
2017-12-12T20:35:24.040Z,42.70
2017-12-12T20:37:26.717Z,39.67
2017-12-12T20:39:29.392Z,39.90
2017-12-12T20:41:32.034Z,44.90
2017-12-12T20:43:35.435Z,40.20
2017-12-12T20:45:38.138Z,43.40
2017-12-12T20:47:40.809Z,38.43
2017-12-12T20:49:43.494Z,38.23
2017-12-12T20:51:46.169Z,41.23
2017-12-12T20:53:48.835Z,41.50
2017-12-12T20:55:51.502Z,40.17
2017-12-12T20:57:54.181Z,41.00
2017-12-12T20:59:57.050Z,42.37
2017-12-12T21:01:59.727Z,48.37
2017-12-12T21:04:02.403Z,38.13
2017-12-12T21:06:05.068Z,42.73
2017-12-12T21:08:07.745Z,44.37
2017-12-12T21:10:11.181Z,45.10
2017-12-12T21:12:13.845Z,41.47
2017-12-12T21:14:16.516Z,45.00
2017-12-12T21:16:19.201Z,52.20
2017-12-12T21:18:21.867Z,45.30
2017-12-12T21:20:24.682Z,43.20
2017-12-12T21:22:27.320Z,50.10
2017-12-12T21:24:30.099Z,45.50
2017-12-12T21:26:32.771Z,46.00
2017-12-12T21:28:37.682Z,41.80
2017-12-12T21:30:40.411Z,45.10
2017-12-12T21:32:43.098Z,36.20
2017-12-12T21:34:45.758Z,38.40
2017-12-12T21:36:48.429Z,36.00
2017-12-12T21:38:51.082Z,38.47
2017-12-12T21:40:53.729Z,39.17
2017-12-12T21:42:57.177Z,36.97
2017-12-12T21:44:59.816Z,35.30
2017-12-12T21:47:02.495Z,41.30
2017-12-12T21:49:05.189Z,42.90
2017-12-12T21:51:07.991Z,38.10
2017-12-12T21:53:10.656Z,39.70
2017-12-12T21:55:13.334Z,32.17
2017-12-12T21:57:15.982Z,37.07
2017-12-12T21:59:18.664Z,36.13
2017-12-12T22:01:21.320Z,42.20
2017-12-12T22:03:23.996Z,36.53
2017-12-12T22:05:26.663Z,37.67
2017-12-12T22:07:30.083Z,35.77
2017-12-12T22:09:32.750Z,39.20
2017-12-12T22:11:35.482Z,33.63
2017-12-12T22:13:38.156Z,37.10
2017-12-12T22:15:40.823Z,28.57
2017-12-12T22:17:43.522Z,32.60
2017-12-12T22:19:46.222Z,35.13
2017-12-12T22:21:49.660Z,33.40
2017-12-12T22:23:52.322Z,31.70
2017-12-12T22:25:54.965Z,31.73
2017-12-12T22:27:58.401Z,36.30
2017-12-12T22:30:01.046Z,27.83
2017-12-12T22:32:03.712Z,31.87
2017-12-12T22:34:06.391Z,34.00
2017-12-12T22:36:09.110Z,33.23
2017-12-12T22:38:11.776Z,35.73
2017-12-12T22:40:14.444Z,24.33
2017-12-12T22:42:17.093Z,31.57
2017-12-12T22:44:19.728Z,28.63
2017-12-12T22:46:22.392Z,29.27
2017-12-12T22:48:25.056Z,31.30
2017-12-12T22:50:27.712Z,29.73
2017-12-12T22:52:30.404Z,23.40
2017-12-12T22:54:33.049Z,22.60
2017-12-12T22:56:35.875Z,23.33
2017-12-12T22:58:38.533Z,21.77
2017-12-12T23:00:41.216Z,26.57
2017-12-12T23:02:43.860Z,24.13
2017-12-12T23:04:46.570Z,20.83
2017-12-12T23:06:49.227Z,20.10
2017-12-12T23:08:51.909Z,24.30
2017-12-12T23:10:54.591Z,24.47
2017-12-12T23:12:57.247Z,22.90
2017-12-12T23:14:59.888Z,19.73
2017-12-12T23:17:02.574Z,21.93
2017-12-12T23:19:06.024Z,24.63
2017-12-12T23:21:08.679Z,23.53
2017-12-12T23:23:11.349Z,20.93
2017-12-12T23:25:14.002Z,25.00
2017-12-12T23:27:17.422Z,22.07
2017-12-12T23:29:20.107Z,21.37
2017-12-12T23:31:22.878Z,22.10
2017-12-12T23:33:25.536Z,23.37
2017-12-12T23:35:28.342Z,19.13
2017-12-12T23:37:30.994Z,19.20
2017-12-12T23:39:33.648Z,20.63
2017-12-12T23:41:37.086Z,20.17
2017-12-12T23:43:39.812Z,21.27
2017-12-12T23:45:42.453Z,22.20
2017-12-12T23:47:45.142Z,19.00
2017-12-12T23:49:47.795Z,18.57
2017-12-12T23:51:50.464Z,20.77
2017-12-12T23:53:53.112Z,20.23
2017-12-12T23:55:56.514Z,19.53
2017-12-12T23:57:59.180Z,21.83
